sensor_id;sensor_type;location;lat;lon;timestamp;pressure;altitude;pressure_sealevel;temperature;humidity
62462;BME280;48511;38.664;-9.202;2022-07-23T00:00:21;100748.38;;;19.33;70.93
62462;BME280;48511;38.664;-9.202;2022-07-23T00:02:22;100754.47;;;19.34;71.37
62462;BME280;48511;38.664;-9.202;2022-07-23T00:04:22;100751.59;;;19.26;71.39
62462;BME280;48511;38.664;-9.202;2022-07-23T00:06:24;100756.88;;;19.26;71.43
62462;BME280;48511;38.664;-9.202;2022-07-23T00:08:24;100752.06;;;19.20;71.75
62462;BME280;48511;38.664;-9.202;2022-07-23T00:10:25;100750.03;;;19.23;72.02
62462;BME280;48511;38.664;-9.202;2022-07-23T00:12:26;100748.69;;;19.17;72.53
62462;BME280;48511;38.664;-9.202;2022-07-23T00:14:27;100741.75;;;19.16;72.63
62462;BME280;48511;38.664;-9.202;2022-07-23T00:16:28;100735.00;;;19.12;72.48
62462;BME280;48511;38.664;-9.202;2022-07-23T00:18:29;100749.41;;;19.08;72.69
62462;BME280;48511;38.664;-9.202;2022-07-23T00:20:30;100749.88;;;19.02;72.53
62462;BME280;48511;38.664;-9.202;2022-07-23T00:22:31;100745.09;;;18.96;72.93
62462;BME280;48511;38.664;-9.202;2022-07-23T00:24:31;100741.19;;;18.89;73.26
62462;BME280;48511;38.664;-9.202;2022-07-23T00:26:32;100742.13;;;18.88;73.57
62462;BME280;48511;38.664;-9.202;2022-07-23T00:28:33;100738.03;;;18.83;73.35
62462;BME280;48511;38.664;-9.202;2022-07-23T00:30:34;100739.44;;;18.76;72.98
62462;BME280;48511;38.664;-9.202;2022-07-23T00:32:55;100740.16;;;18.67;72.30
62462;BME280;48511;38.664;-9.202;2022-07-23T00:34:57;100751.41;;;18.58;72.85
62462;BME280;48511;38.664;-9.202;2022-07-23T00:36:58;100756.88;;;18.55;73.42
62462;BME280;48511;38.664;-9.202;2022-07-23T00:38:58;100748.72;;;18.46;73.69
62462;BME280;48511;38.664;-9.202;2022-07-23T00:40:59;100747.25;;;18.42;73.87
62462;BME280;48511;38.664;-9.202;2022-07-23T00:43:00;100751.28;;;18.35;73.90
62462;BME280;48511;38.664;-9.202;2022-07-23T00:45:01;100749.84;;;18.31;74.04
62462;BME280;48511;38.664;-9.202;2022-07-23T00:47:01;100746.81;;;18.24;74.47
62462;BME280;48511;38.664;-9.202;2022-07-23T00:49:02;100742.94;;;18.17;74.31
62462;BME280;48511;38.664;-9.202;2022-07-23T00:51:03;100742.31;;;18.13;74.72
62462;BME280;48511;38.664;-9.202;2022-07-23T00:53:04;100742.53;;;18.10;74.76
62462;BME280;48511;38.664;-9.202;2022-07-23T00:55:07;100745.28;;;18.09;74.25
62462;BME280;48511;38.664;-9.202;2022-07-23T00:57:09;100744.66;;;18.05;74.55
62462;BME280;48511;38.664;-9.202;2022-07-23T00:59:09;100745.81;;;18.01;74.54
62462;BME280;48511;38.664;-9.202;2022-07-23T01:01:11;100740.78;;;17.98;75.13
62462;BME280;48511;38.664;-9.202;2022-07-23T01:03:11;100746.06;;;17.98;75.35
62462;BME280;48511;38.664;-9.202;2022-07-23T01:05:12;100736.84;;;17.91;74.87
62462;BME280;48511;38.664;-9.202;2022-07-23T01:07:13;100735.63;;;17.83;74.82
62462;BME280;48511;38.664;-9.202;2022-07-23T01:09:15;100735.81;;;17.80;75.43
62462;BME280;48511;38.664;-9.202;2022-07-23T01:11:18;100730.78;;;17.77;75.66
62462;BME280;48511;38.664;-9.202;2022-07-23T01:13:19;100728.91;;;17.79;76.33
62462;BME280;48511;38.664;-9.202;2022-07-23T01:15:20;100725.28;;;17.80;76.85
62462;BME280;48511;38.664;-9.202;2022-07-23T01:17:21;100731.53;;;17.79;77.21
62462;BME280;48511;38.664;-9.202;2022-07-23T01:19:22;100729.09;;;17.76;77.40
62462;BME280;48511;38.664;-9.202;2022-07-23T01:21:23;100731.03;;;17.74;77.54
62462;BME280;48511;38.664;-9.202;2022-07-23T01:23:24;100731.22;;;17.71;77.75
62462;BME280;48511;38.664;-9.202;2022-07-23T01:25:29;100723.31;;;17.71;77.91
62462;BME280;48511;38.664;-9.202;2022-07-23T01:27:37;100721.53;;;17.71;78.35
62462;BME280;48511;38.664;-9.202;2022-07-23T01:29:39;100724.06;;;17.73;78.84
62462;BME280;48511;38.664;-9.202;2022-07-23T01:31:47;100717.91;;;17.73;79.34
62462;BME280;48511;38.664;-9.202;2022-07-23T01:33:48;100716.84;;;17.75;79.48
62462;BME280;48511;38.664;-9.202;2022-07-23T01:35:49;100710.88;;;17.73;79.46
62462;BME280;48511;38.664;-9.202;2022-07-23T01:37:55;100709.06;;;17.74;80.17
62462;BME280;48511;38.664;-9.202;2022-07-23T01:39:56;100711.94;;;17.70;81.17
62462;BME280;48511;38.664;-9.202;2022-07-23T01:41:58;100714.03;;;17.78;82.52
62462;BME280;48511;38.664;-9.202;2022-07-23T01:44:01;100710.72;;;17.87;82.97
62462;BME280;48511;38.664;-9.202;2022-07-23T01:46:02;100715.75;;;18.03;83.86
62462;BME280;48511;38.664;-9.202;2022-07-23T01:48:09;100718.94;;;18.09;83.88
62462;BME280;48511;38.664;-9.202;2022-07-23T01:50:11;100719.75;;;18.09;84.05
62462;BME280;48511;38.664;-9.202;2022-07-23T01:52:40;100708.06;;;18.00;84.04
62462;BME280;48511;38.664;-9.202;2022-07-23T01:54:41;100694.06;;;18.00;84.72
62462;BME280;48511;38.664;-9.202;2022-07-23T01:56:43;100701.97;;;18.00;84.80
62462;BME280;48511;38.664;-9.202;2022-07-23T01:58:48;100703.75;;;17.99;84.84
62462;BME280;48511;38.664;-9.202;2022-07-23T02:00:49;100705.13;;;18.05;85.14
62462;BME280;48511;38.664;-9.202;2022-07-23T02:02:50;100706.25;;;18.01;84.98
62462;BME280;48511;38.664;-9.202;2022-07-23T02:04:50;100701.72;;;18.03;85.21
62462;BME280;48511;38.664;-9.202;2022-07-23T02:06:53;100697.41;;;18.02;85.30
62462;BME280;48511;38.664;-9.202;2022-07-23T02:08:54;100696.69;;;18.00;85.51
62462;BME280;48511;38.664;-9.202;2022-07-23T02:10:56;100689.94;;;17.96;85.70
62462;BME280;48511;38.664;-9.202;2022-07-23T02:12:57;100689.84;;;17.97;85.87
62462;BME280;48511;38.664;-9.202;2022-07-23T02:14:58;100689.00;;;17.97;85.88
62462;BME280;48511;38.664;-9.202;2022-07-23T02:16:59;100680.38;;;17.95;86.28
62462;BME280;48511;38.664;-9.202;2022-07-23T02:19:00;100679.38;;;17.96;85.99
62462;BME280;48511;38.664;-9.202;2022-07-23T02:21:01;100687.41;;;17.94;86.53
62462;BME280;48511;38.664;-9.202;2022-07-23T02:23:02;100683.94;;;17.94;86.67
62462;BME280;48511;38.664;-9.202;2022-07-23T02:25:04;100685.16;;;18.01;86.48
62462;BME280;48511;38.664;-9.202;2022-07-23T02:27:05;100688.03;;;17.98;86.33
62462;BME280;48511;38.664;-9.202;2022-07-23T02:29:06;100684.47;;;17.99;86.40
62462;BME280;48511;38.664;-9.202;2022-07-23T02:31:07;100676.97;;;17.93;86.59
62462;BME280;48511;38.664;-9.202;2022-07-23T02:33:08;100690.56;;;17.86;86.75
62462;BME280;48511;38.664;-9.202;2022-07-23T02:35:09;100688.19;;;17.83;87.18
62462;BME280;48511;38.664;-9.202;2022-07-23T02:37:10;100685.75;;;17.80;87.31
62462;BME280;48511;38.664;-9.202;2022-07-23T02:39:11;100683.09;;;17.80;87.27
62462;BME280;48511;38.664;-9.202;2022-07-23T02:41:13;100683.97;;;17.81;87.02
62462;BME280;48511;38.664;-9.202;2022-07-23T02:43:16;100680.72;;;17.77;87.17
62462;BME280;48511;38.664;-9.202;2022-07-23T02:45:16;100682.41;;;17.78;87.10
62462;BME280;48511;38.664;-9.202;2022-07-23T02:47:17;100682.72;;;17.74;87.18
62462;BME280;48511;38.664;-9.202;2022-07-23T02:49:19;100686.09;;;17.76;87.35
62462;BME280;48511;38.664;-9.202;2022-07-23T02:51:23;100682.47;;;17.90;87.02
62462;BME280;48511;38.664;-9.202;2022-07-23T02:53:29;100676.19;;;17.79;87.06
62462;BME280;48511;38.664;-9.202;2022-07-23T02:55:30;100677.94;;;17.79;87.33
62462;BME280;48511;38.664;-9.202;2022-07-23T02:57:35;100673.63;;;17.78;87.12
62462;BME280;48511;38.664;-9.202;2022-07-23T02:59:36;100676.38;;;17.76;87.26
62462;BME280;48511;38.664;-9.202;2022-07-23T03:01:37;100671.63;;;17.81;87.38
62462;BME280;48511;38.664;-9.202;2022-07-23T03:03:37;100679.75;;;17.78;87.53
62462;BME280;48511;38.664;-9.202;2022-07-23T03:05:39;100673.75;;;17.76;87.63
62462;BME280;48511;38.664;-9.202;2022-07-23T03:07:39;100672.41;;;17.70;87.69
62462;BME280;48511;38.664;-9.202;2022-07-23T03:09:40;100673.47;;;17.68;88.06
62462;BME280;48511;38.664;-9.202;2022-07-23T03:11:42;100673.66;;;17.65;87.96
62462;BME280;48511;38.664;-9.202;2022-07-23T03:13:43;100677.78;;;17.69;88.19
62462;BME280;48511;38.664;-9.202;2022-07-23T03:15:44;100671.78;;;17.67;88.25
62462;BME280;48511;38.664;-9.202;2022-07-23T03:17:45;100674.66;;;17.64;88.47
62462;BME280;48511;38.664;-9.202;2022-07-23T03:19:47;100668.41;;;17.65;88.55
62462;BME280;48511;38.664;-9.202;2022-07-23T03:21:48;100666.00;;;17.62;88.61
62462;BME280;48511;38.664;-9.202;2022-07-23T03:23:48;100667.69;;;17.63;88.58
62462;BME280;48511;38.664;-9.202;2022-07-23T03:25:49;100666.75;;;17.64;88.62
62462;BME280;48511;38.664;-9.202;2022-07-23T03:27:50;100660.94;;;17.83;87.94
62462;BME280;48511;38.664;-9.202;2022-07-23T03:29:52;100660.13;;;17.82;87.63
62462;BME280;48511;38.664;-9.202;2022-07-23T03:31:53;100658.94;;;17.86;87.38
62462;BME280;48511;38.664;-9.202;2022-07-23T03:33:54;100653.53;;;18.01;86.78
62462;BME280;48511;38.664;-9.202;2022-07-23T03:35:55;100651.88;;;18.00;86.93
62462;BME280;48511;38.664;-9.202;2022-07-23T03:38:02;100653.53;;;18.01;86.93
62462;BME280;48511;38.664;-9.202;2022-07-23T03:40:04;100658.50;;;17.93;86.88
62462;BME280;48511;38.664;-9.202;2022-07-23T03:42:05;100660.13;;;17.82;87.57
62462;BME280;48511;38.664;-9.202;2022-07-23T03:44:06;100665.00;;;17.76;87.72
62462;BME280;48511;38.664;-9.202;2022-07-23T03:46:06;100664.16;;;17.75;88.27
62462;BME280;48511;38.664;-9.202;2022-07-23T03:48:08;100674.69;;;17.75;88.04
62462;BME280;48511;38.664;-9.202;2022-07-23T03:50:09;100669.66;;;18.09;86.76
62462;BME280;48511;38.664;-9.202;2022-07-23T03:52:11;100674.31;;;17.93;86.99
62462;BME280;48511;38.664;-9.202;2022-07-23T03:54:12;100668.03;;;17.82;87.22
62462;BME280;48511;38.664;-9.202;2022-07-23T03:56:12;100665.00;;;17.76;87.87
62462;BME280;48511;38.664;-9.202;2022-07-23T03:58:13;100664.63;;;17.69;87.67
62462;BME280;48511;38.664;-9.202;2022-07-23T04:00:14;100658.28;;;17.59;87.81
62462;BME280;48511;38.664;-9.202;2022-07-23T04:02:16;100669.28;;;17.52;88.14
62462;BME280;48511;38.664;-9.202;2022-07-23T04:04:17;100666.16;;;17.47;88.16
62462;BME280;48511;38.664;-9.202;2022-07-23T04:06:18;100670.16;;;17.40;88.23
62462;BME280;48511;38.664;-9.202;2022-07-23T04:08:20;100668.47;;;17.39;88.52
62462;BME280;48511;38.664;-9.202;2022-07-23T04:10:25;100659.84;;;17.37;88.72
62462;BME280;48511;38.664;-9.202;2022-07-23T04:12:25;100662.56;;;17.35;88.69
62462;BME280;48511;38.664;-9.202;2022-07-23T04:14:27;100661.97;;;17.32;88.62
62462;BME280;48511;38.664;-9.202;2022-07-23T04:16:28;100658.59;;;17.30;88.67
62462;BME280;48511;38.664;-9.202;2022-07-23T04:18:29;100663.63;;;17.20;88.24
62462;BME280;48511;38.664;-9.202;2022-07-23T04:20:38;100660.47;;;17.15;88.40
62462;BME280;48511;38.664;-9.202;2022-07-23T04:22:40;100661.75;;;17.09;88.39
62462;BME280;48511;38.664;-9.202;2022-07-23T04:24:41;100662.94;;;17.05;88.45
62462;BME280;48511;38.664;-9.202;2022-07-23T04:26:43;100666.63;;;17.02;88.40
62462;BME280;48511;38.664;-9.202;2022-07-23T04:28:44;100668.72;;;16.97;88.01
62462;BME280;48511;38.664;-9.202;2022-07-23T04:30:45;100666.66;;;16.88;88.04
62462;BME280;48511;38.664;-9.202;2022-07-23T04:32:48;100662.78;;;16.81;87.87
62462;BME280;48511;38.664;-9.202;2022-07-23T04:35:00;100669.22;;;16.77;88.15
62462;BME280;48511;38.664;-9.202;2022-07-23T04:37:01;100659.09;;;16.70;88.14
62462;BME280;48511;38.664;-9.202;2022-07-23T04:39:04;100668.97;;;16.67;88.24
62462;BME280;48511;38.664;-9.202;2022-07-23T04:41:06;100668.44;;;16.62;88.32
62462;BME280;48511;38.664;-9.202;2022-07-23T04:43:06;100667.81;;;16.58;88.51
62462;BME280;48511;38.664;-9.202;2022-07-23T04:45:12;100661.72;;;16.58;88.83
62462;BME280;48511;38.664;-9.202;2022-07-23T04:47:12;100658.13;;;16.59;88.85
62462;BME280;48511;38.664;-9.202;2022-07-23T04:49:13;100664.78;;;16.64;89.42
62462;BME280;48511;38.664;-9.202;2022-07-23T04:51:14;100655.72;;;16.68;89.68
62462;BME280;48511;38.664;-9.202;2022-07-23T04:53:15;100661.91;;;16.67;89.80
62462;BME280;48511;38.664;-9.202;2022-07-23T04:55:17;100665.19;;;16.71;90.20
62462;BME280;48511;38.664;-9.202;2022-07-23T04:57:18;100668.47;;;16.75;90.39
62462;BME280;48511;38.664;-9.202;2022-07-23T04:59:19;100662.38;;;16.74;90.47
62462;BME280;48511;38.664;-9.202;2022-07-23T05:01:22;100664.91;;;16.76;90.50
62462;BME280;48511;38.664;-9.202;2022-07-23T05:03:24;100665.09;;;16.72;90.41
62462;BME280;48511;38.664;-9.202;2022-07-23T05:05:24;100662.38;;;16.74;90.45
62462;BME280;48511;38.664;-9.202;2022-07-23T05:07:30;100662.38;;;16.74;90.67
62462;BME280;48511;38.664;-9.202;2022-07-23T05:09:30;100667.72;;;16.72;91.02
62462;BME280;48511;38.664;-9.202;2022-07-23T05:11:32;100663.72;;;16.67;91.24
62462;BME280;48511;38.664;-9.202;2022-07-23T05:13:33;100666.34;;;16.67;91.46
62462;BME280;48511;38.664;-9.202;2022-07-23T05:15:34;100663.63;;;16.68;91.46
62462;BME280;48511;38.664;-9.202;2022-07-23T05:17:35;100668.03;;;16.68;91.58
62462;BME280;48511;38.664;-9.202;2022-07-23T05:19:40;100669.94;;;16.66;91.52
62462;BME280;48511;38.664;-9.202;2022-07-23T05:21:42;100673.72;;;16.62;91.53
62462;BME280;48511;38.664;-9.202;2022-07-23T05:23:43;100678.97;;;16.62;91.38
62462;BME280;48511;38.664;-9.202;2022-07-23T05:25:44;100670.56;;;16.56;91.34
62462;BME280;48511;38.664;-9.202;2022-07-23T05:27:45;100669.91;;;16.53;91.41
62462;BME280;48511;38.664;-9.202;2022-07-23T05:29:46;100677.25;;;16.48;91.39
62462;BME280;48511;38.664;-9.202;2022-07-23T05:31:47;100670.19;;;16.48;91.53
62462;BME280;48511;38.664;-9.202;2022-07-23T05:33:48;100686.09;;;16.47;91.82
62462;BME280;48511;38.664;-9.202;2022-07-23T05:35:49;100680.00;;;16.46;91.90
62462;BME280;48511;38.664;-9.202;2022-07-23T05:38:10;100671.16;;;16.47;91.83
62462;BME280;48511;38.664;-9.202;2022-07-23T05:40:12;100682.53;;;16.48;91.92
62462;BME280;48511;38.664;-9.202;2022-07-23T05:42:13;100685.97;;;16.48;91.68
62462;BME280;48511;38.664;-9.202;2022-07-23T05:44:15;100679.78;;;16.49;91.26
62462;BME280;48511;38.664;-9.202;2022-07-23T05:46:18;100680.44;;;16.53;91.77
62462;BME280;48511;38.664;-9.202;2022-07-23T05:48:23;100690.72;;;16.56;91.73
62462;BME280;48511;38.664;-9.202;2022-07-23T05:50:33;100684.44;;;16.59;91.88
62462;BME280;48511;38.664;-9.202;2022-07-23T05:52:41;100689.41;;;16.63;92.13
62462;BME280;48511;38.664;-9.202;2022-07-23T05:55:01;100690.97;;;16.66;92.25
62462;BME280;48511;38.664;-9.202;2022-07-23T05:57:02;100694.78;;;16.75;91.97
62462;BME280;48511;38.664;-9.202;2022-07-23T05:59:03;100689.53;;;16.75;91.73
62462;BME280;48511;38.664;-9.202;2022-07-23T06:01:04;100695.00;;;16.84;91.97
62462;BME280;48511;38.664;-9.202;2022-07-23T06:03:13;100701.94;;;16.85;92.45
62462;BME280;48511;38.664;-9.202;2022-07-23T06:05:15;100699.88;;;16.91;92.37
62462;BME280;48511;38.664;-9.202;2022-07-23T06:07:16;100699.25;;;17.00;91.88
62462;BME280;48511;38.664;-9.202;2022-07-23T06:09:16;100701.47;;;17.19;91.75
62462;BME280;48511;38.664;-9.202;2022-07-23T06:11:18;100693.13;;;17.25;91.77
62462;BME280;48511;38.664;-9.202;2022-07-23T06:13:19;100703.66;;;17.38;91.75
62462;BME280;48511;38.664;-9.202;2022-07-23T06:15:21;100701.97;;;17.50;91.49
62462;BME280;48511;38.664;-9.202;2022-07-23T06:17:22;100702.88;;;17.62;90.84
62462;BME280;48511;38.664;-9.202;2022-07-23T06:19:22;100694.94;;;17.75;90.58
62462;BME280;48511;38.664;-9.202;2022-07-23T06:21:24;100693.09;;;17.88;90.74
62462;BME280;48511;38.664;-9.202;2022-07-23T06:23:24;100690.66;;;18.46;88.79
62462;BME280;48511;38.664;-9.202;2022-07-23T06:25:25;100697.31;;;18.99;87.09
62462;BME280;48511;38.664;-9.202;2022-07-23T06:27:26;100701.63;;;19.57;83.68
62462;BME280;48511;38.664;-9.202;2022-07-23T06:29:27;100707.84;;;20.01;79.27
62462;BME280;48511;38.664;-9.202;2022-07-23T06:31:27;100709.66;;;20.33;77.06
62462;BME280;48511;38.664;-9.202;2022-07-23T06:33:29;100713.09;;;20.45;75.25
62462;BME280;48511;38.664;-9.202;2022-07-23T06:35:30;100710.84;;;20.29;76.31
62462;BME280;48511;38.664;-9.202;2022-07-23T06:37:30;100708.06;;;20.09;77.07
62462;BME280;48511;38.664;-9.202;2022-07-23T06:39:31;100711.69;;;19.97;77.92
62462;BME280;48511;38.664;-9.202;2022-07-23T06:41:33;100713.84;;;19.92;78.06
62462;BME280;48511;38.664;-9.202;2022-07-23T06:43:34;100719.53;;;19.87;78.67
62462;BME280;48511;38.664;-9.202;2022-07-23T06:45:35;100719.25;;;19.79;78.80
62462;BME280;48511;38.664;-9.202;2022-07-23T06:47:36;100719.88;;;19.82;78.97
62462;BME280;48511;38.664;-9.202;2022-07-23T06:49:38;100716.50;;;19.80;79.30
62462;BME280;48511;38.664;-9.202;2022-07-23T06:51:41;100725.53;;;19.89;78.41
62462;BME280;48511;38.664;-9.202;2022-07-23T06:53:42;100723.47;;;19.93;78.21
62462;BME280;48511;38.664;-9.202;2022-07-23T06:55:43;100729.09;;;20.11;77.39
62462;BME280;48511;38.664;-9.202;2022-07-23T06:57:46;100737.28;;;20.08;77.65
62462;BME280;48511;38.664;-9.202;2022-07-23T06:59:47;100730.56;;;20.04;78.21
62462;BME280;48511;38.664;-9.202;2022-07-23T07:01:47;100734.59;;;20.19;77.02
62462;BME280;48511;38.664;-9.202;2022-07-23T07:03:48;100734.59;;;20.19;77.33
62462;BME280;48511;38.664;-9.202;2022-07-23T07:05:49;100735.44;;;20.20;76.94
62462;BME280;48511;38.664;-9.202;2022-07-23T07:07:50;100737.13;;;20.21;77.49
62462;BME280;48511;38.664;-9.202;2022-07-23T07:09:50;100734.13;;;20.46;75.63
62462;BME280;48511;38.664;-9.202;2022-07-23T07:11:51;100737.78;;;20.34;76.01
62462;BME280;48511;38.664;-9.202;2022-07-23T07:13:52;100737.38;;;20.50;75.43
62462;BME280;48511;38.664;-9.202;2022-07-23T07:15:53;100738.81;;;20.54;75.14
62462;BME280;48511;38.664;-9.202;2022-07-23T07:17:53;100745.94;;;20.75;74.20
62462;BME280;48511;38.664;-9.202;2022-07-23T07:19:54;100739.63;;;20.87;73.55
62462;BME280;48511;38.664;-9.202;2022-07-23T07:21:55;100734.53;;;20.74;74.22
62462;BME280;48511;38.664;-9.202;2022-07-23T07:23:55;100736.13;;;20.87;73.37
62462;BME280;48511;38.664;-9.202;2022-07-23T07:25:56;100740.91;;;20.93;73.75
62462;BME280;48511;38.664;-9.202;2022-07-23T07:27:57;100741.06;;;21.12;72.45
62462;BME280;48511;38.664;-9.202;2022-07-23T07:29:58;100742.97;;;21.10;72.22
62462;BME280;48511;38.664;-9.202;2022-07-23T07:31:58;100755.00;;;21.14;71.62
62462;BME280;48511;38.664;-9.202;2022-07-23T07:33:59;100754.78;;;21.27;71.54
62462;BME280;48511;38.664;-9.202;2022-07-23T07:36:00;100759.56;;;21.34;70.92
62462;BME280;48511;38.664;-9.202;2022-07-23T07:38:01;100765.88;;;21.42;70.19
62462;BME280;48511;38.664;-9.202;2022-07-23T07:40:02;100760.50;;;21.54;69.93
62462;BME280;48511;38.664;-9.202;2022-07-23T07:42:03;100756.78;;;21.56;69.72
62462;BME280;48511;38.664;-9.202;2022-07-23T07:44:04;100763.53;;;21.70;69.11
62462;BME280;48511;38.664;-9.202;2022-07-23T07:46:05;100758.38;;;21.78;68.49
62462;BME280;48511;38.664;-9.202;2022-07-23T07:48:07;100761.84;;;21.79;68.28
62462;BME280;48511;38.664;-9.202;2022-07-23T07:50:08;100765.25;;;21.91;68.34
62462;BME280;48511;38.664;-9.202;2022-07-23T07:52:09;100768.22;;;22.07;67.71
62462;BME280;48511;38.664;-9.202;2022-07-23T07:54:13;100763.06;;;22.16;66.95
62462;BME280;48511;38.664;-9.202;2022-07-23T07:56:14;100770.91;;;22.27;66.45
62462;BME280;48511;38.664;-9.202;2022-07-23T07:58:15;100767.16;;;22.39;66.28
62462;BME280;48511;38.664;-9.202;2022-07-23T08:00:16;100761.88;;;22.59;65.37
62462;BME280;48511;38.664;-9.202;2022-07-23T08:02:17;100764.78;;;22.56;65.40
62462;BME280;48511;38.664;-9.202;2022-07-23T08:04:18;100768.03;;;22.69;65.38
62462;BME280;48511;38.664;-9.202;2022-07-23T08:06:19;100761.84;;;22.78;64.99
62462;BME280;48511;38.664;-9.202;2022-07-23T08:08:19;100759.75;;;22.82;64.14
62462;BME280;48511;38.664;-9.202;2022-07-23T08:10:20;100765.63;;;22.86;64.20
62462;BME280;48511;38.664;-9.202;2022-07-23T08:12:21;100761.13;;;22.96;63.82
62462;BME280;48511;38.664;-9.202;2022-07-23T08:14:22;100756.50;;;22.98;63.61
62462;BME280;48511;38.664;-9.202;2022-07-23T08:16:22;100767.53;;;23.03;62.58
62462;BME280;48511;38.664;-9.202;2022-07-23T08:18:23;100760.38;;;23.14;62.81
62462;BME280;48511;38.664;-9.202;2022-07-23T08:20:25;100772.25;;;23.29;62.14
62462;BME280;48511;38.664;-9.202;2022-07-23T08:24:53;100770.97;;;23.43;61.89
62462;BME280;48511;38.664;-9.202;2022-07-23T08:26:54;100766.84;;;23.58;61.33
62462;BME280;48511;38.664;-9.202;2022-07-23T08:28:54;100762.38;;;23.59;61.18
62462;BME280;48511;38.664;-9.202;2022-07-23T08:30:55;100767.38;;;23.62;61.04
62462;BME280;48511;38.664;-9.202;2022-07-23T08:34:57;100771.19;;;23.87;60.55
62462;BME280;48511;38.664;-9.202;2022-07-23T08:36:58;100770.56;;;24.03;59.98
62462;BME280;48511;38.664;-9.202;2022-07-23T08:38:59;100770.72;;;24.20;59.00
62462;BME280;48511;38.664;-9.202;2022-07-23T08:41:00;100780.19;;;24.32;58.77
62462;BME280;48511;38.664;-9.202;2022-07-23T08:43:05;100773.28;;;24.39;58.71
62462;BME280;48511;38.664;-9.202;2022-07-23T08:45:08;100770.72;;;24.56;57.85
62462;BME280;48511;38.664;-9.202;2022-07-23T08:47:10;100772.13;;;24.60;57.40
62462;BME280;48511;38.664;-9.202;2022-07-23T08:49:12;100766.22;;;24.66;57.18
62462;BME280;48511;38.664;-9.202;2022-07-23T08:51:13;100764.34;;;24.85;56.67
62462;BME280;48511;38.664;-9.202;2022-07-23T08:53:15;100766.34;;;25.09;55.98
62462;BME280;48511;38.664;-9.202;2022-07-23T08:55:17;100766.88;;;25.13;54.92
62462;BME280;48511;38.664;-9.202;2022-07-23T08:57:18;100763.53;;;25.11;55.80
62462;BME280;48511;38.664;-9.202;2022-07-23T08:59:19;100773.09;;;25.21;55.15
62462;BME280;48511;38.664;-9.202;2022-07-23T09:01:20;100764.88;;;25.15;55.50
62462;BME280;48511;38.664;-9.202;2022-07-23T09:03:24;100768.97;;;25.27;55.19
62462;BME280;48511;38.664;-9.202;2022-07-23T09:05:25;100769.53;;;25.39;54.81
62462;BME280;48511;38.664;-9.202;2022-07-23T09:07:25;100769.28;;;25.50;54.86
62462;BME280;48511;38.664;-9.202;2022-07-23T09:09:26;100776.88;;;25.71;53.54
62462;BME280;48511;38.664;-9.202;2022-07-23T09:11:30;100767.75;;;25.91;53.41
62462;BME280;48511;38.664;-9.202;2022-07-23T09:13:50;100777.22;;;26.11;52.48
62462;BME280;48511;38.664;-9.202;2022-07-23T09:15:54;100774.72;;;26.18;51.90
62462;BME280;48511;38.664;-9.202;2022-07-23T09:17:55;100788.66;;;26.03;52.52
62462;BME280;48511;38.664;-9.202;2022-07-23T09:20:11;100772.34;;;26.15;52.75
62462;BME280;48511;38.664;-9.202;2022-07-23T09:22:22;100780.25;;;26.49;51.26
62462;BME280;48511;38.664;-9.202;2022-07-23T09:24:23;100775.06;;;26.48;51.45
62462;BME280;48511;38.664;-9.202;2022-07-23T09:26:30;100771.44;;;26.74;50.38
62462;BME280;48511;38.664;-9.202;2022-07-23T09:28:31;100767.75;;;26.91;50.01
62462;BME280;48511;38.664;-9.202;2022-07-23T09:30:32;100770.59;;;27.06;49.78
62462;BME280;48511;38.664;-9.202;2022-07-23T09:32:34;100775.03;;;27.22;49.21
62462;BME280;48511;38.664;-9.202;2022-07-23T09:34:36;100767.34;;;27.27;48.58
62462;BME280;48511;38.664;-9.202;2022-07-23T09:36:41;100778.69;;;27.38;49.02
62462;BME280;48511;38.664;-9.202;2022-07-23T09:38:49;100778.03;;;27.44;48.04
62462;BME280;48511;38.664;-9.202;2022-07-23T09:41:10;100774.50;;;27.35;48.78
62462;BME280;48511;38.664;-9.202;2022-07-23T09:43:12;100770.31;;;27.49;47.97
62462;BME280;48511;38.664;-9.202;2022-07-23T09:45:13;100773.66;;;27.51;47.94
62462;BME280;48511;38.664;-9.202;2022-07-23T09:47:14;100786.66;;;27.62;46.69
62462;BME280;48511;38.664;-9.202;2022-07-23T09:51:18;100783.50;;;27.90;45.93
62462;BME280;48511;38.664;-9.202;2022-07-23T09:53:39;100789.31;;;27.71;45.57
62462;BME280;48511;38.664;-9.202;2022-07-23T09:55:40;100788.94;;;27.74;45.91
62462;BME280;48511;38.664;-9.202;2022-07-23T09:57:42;100787.56;;;27.86;45.99
62462;BME280;48511;38.664;-9.202;2022-07-23T09:59:46;100784.78;;;28.11;44.60
62462;BME280;48511;38.664;-9.202;2022-07-23T10:01:48;100787.16;;;28.06;45.21
62462;BME280;48511;38.664;-9.202;2022-07-23T10:03:49;100790.44;;;28.16;44.64
62462;BME280;48511;38.664;-9.202;2022-07-23T10:06:29;100786.94;;;28.39;44.80
62462;BME280;48511;38.664;-9.202;2022-07-23T10:08:50;100801.34;;;28.61;44.21
62462;BME280;48511;38.664;-9.202;2022-07-23T10:11:30;100800.84;;;28.57;43.87
62462;BME280;48511;38.664;-9.202;2022-07-23T10:13:55;100795.44;;;28.65;43.75
62462;BME280;48511;38.664;-9.202;2022-07-23T10:16:16;100792.97;;;28.87;43.29
62462;BME280;48511;38.664;-9.202;2022-07-23T10:18:17;100803.69;;;29.02;43.40
62462;BME280;48511;38.664;-9.202;2022-07-23T10:20:18;100796.44;;;29.26;43.02
62462;BME280;48511;38.664;-9.202;2022-07-23T10:24:48;100795.41;;;29.27;41.96
62462;BME280;48511;38.664;-9.202;2022-07-23T10:35:37;100793.22;;;29.45;43.06
62462;BME280;48511;38.664;-9.202;2022-07-23T10:37:45;100789.72;;;29.60;42.92
62462;BME280;48511;38.664;-9.202;2022-07-23T10:40:09;100798.13;;;29.42;43.06
62462;BME280;48511;38.664;-9.202;2022-07-23T10:42:12;100787.84;;;29.45;42.56
62462;BME280;48511;38.664;-9.202;2022-07-23T10:44:21;100792.00;;;29.48;42.48
62462;BME280;48511;38.664;-9.202;2022-07-23T10:46:26;100795.34;;;29.65;42.48
62462;BME280;48511;38.664;-9.202;2022-07-23T10:48:40;100788.72;;;29.83;41.53
62462;BME280;48511;38.664;-9.202;2022-07-23T10:50:42;100797.53;;;29.91;40.83